Main page
METAR-TAF:

METAR-TAF

Airports :

Kiel Airport

Kiel, Germany

latitude: 54-23N, longitude: 010-10E, elevation: 31 m

Current weather observation

The report was made 35 minutes ago, at 22:20 UTC
Wind 8 kt from the West
Temperature 15°C
Humidity 88%
Pressure 1021 hPa
Visibility 10 km or more

METAR: EDHK 172220Z AUTO 27008KT 9999 // OVC015/// 15/13 Q1021

Time: 00:55 (22:55 UTC)

Forecast

The report was made 8 hours and 55 minutes ago, at 14:00 UTC
Forecast valid from 17 at 15 UTC to 17 at 19 UTC
Wind 10 kt from the West
Visibility 10 km or more
Broken clouds at a height of 2000 ft
Temporary
from 17 at 15 UTC to 17 at 17 UTC
Broken clouds at a height of 1200 ft
Probability 40% :
Temporary
from 17 at 15 UTC to 17 at 17 UTC
Wind 15 kt from the West with gusts up to 25 kt
Visibility: 4000 m
Broken clouds at a height of 700 ft
rain, drizzle,

TAF: EDHK 171400Z 1715/1719 27010KT 9999 BKN020 TEMPO 1715/1717 BKN012 PROB40 TEMPO 1715/1717 27015G25KT 4000 RADZ BKN007

Weather observations and forecasts of more than 4000 airports (METAR and TAF reports).

The available stations are represented by yellow and red dots on the map.

Hover mouse over dot to see the name of the station.

Then click to see weather observations and forecasts.

To change the map : click on the green buttons with a black cross to zoom in, on the green button with a dash to zoom out, or on the green arrows for adjacent maps.


METAR-TAF: